createdAt,value
2019-04-26T00:01:35.593Z,12.77
2019-04-26T00:04:09.209Z,12.80
2019-04-26T00:06:41.780Z,12.70
2019-04-26T00:09:25.905Z,12.58
2019-04-26T00:12:25.638Z,12.57
2019-04-26T00:15:15.013Z,12.31
2019-04-26T00:17:50.417Z,12.00
2019-04-26T00:20:22.359Z,11.73
2019-04-26T00:22:54.393Z,11.67
2019-04-26T00:25:26.342Z,11.56
2019-04-26T00:27:58.007Z,11.49
2019-04-26T00:30:29.902Z,11.50
2019-04-26T00:33:04.625Z,11.39
2019-04-26T00:35:46.924Z,11.40
2019-04-26T00:38:10.028Z,11.36
2019-04-26T00:40:42.291Z,11.38
2019-04-26T00:43:14.497Z,11.40
2019-04-26T00:45:46.640Z,11.58
2019-04-26T00:48:19.385Z,11.63
2019-04-26T00:50:53.787Z,11.82
2019-04-26T00:53:27.253Z,11.92
2019-04-26T00:56:00.034Z,11.81
2019-04-26T00:58:33.632Z,11.81
2019-04-26T01:01:05.809Z,11.81
2019-04-26T01:03:37.788Z,11.83
2019-04-26T01:06:11.960Z,11.95
2019-04-26T01:08:43.376Z,11.84
2019-04-26T01:11:16.282Z,11.95
2019-04-26T01:13:48.499Z,11.92
2019-04-26T01:16:20.450Z,11.69
2019-04-26T01:18:52.945Z,11.55
2019-04-26T01:21:27.341Z,11.53
2019-04-26T01:24:01.820Z,11.41
2019-04-26T01:26:35.525Z,11.26
2019-04-26T01:29:09.985Z,11.25
2019-04-26T01:31:49.087Z,11.21
2019-04-26T01:34:22.040Z,11.22
2019-04-26T01:36:56.331Z,11.20
2019-04-26T01:39:28.124Z,11.29
2019-04-26T01:42:15.746Z,11.43
2019-04-26T01:45:05.915Z,11.31
2019-04-26T01:47:38.654Z,11.19
2019-04-26T01:50:12.023Z,11.13
2019-04-26T01:52:45.787Z,11.09
2019-04-26T01:55:18.371Z,11.02
2019-04-26T01:57:50.316Z,11.01
2019-04-26T02:00:41.345Z,10.99
2019-04-26T02:03:21.561Z,11.02
2019-04-26T02:05:56.170Z,11.08
2019-04-26T02:08:28.268Z,11.08
2019-04-26T02:11:00.217Z,11.07
2019-04-26T02:13:33.066Z,11.10
2019-04-26T02:16:05.335Z,11.19
2019-04-26T02:18:37.431Z,11.26
2019-04-26T02:21:27.990Z,11.29
2019-04-26T02:24:11.744Z,11.37
2019-04-26T02:26:46.762Z,11.49
2019-04-26T02:29:26.643Z,11.45
2019-04-26T02:32:04.082Z,11.52
2019-04-26T02:34:38.394Z,11.42
2019-04-26T02:37:13.284Z,11.32
2019-04-26T02:39:45.523Z,11.01
2019-04-26T02:42:28.673Z,10.82
2019-04-26T02:45:20.983Z,10.71
2019-04-26T02:48:15.971Z,10.66
2019-04-26T02:50:53.792Z,10.55
2019-04-26T02:54:15.285Z,10.48
2019-04-26T02:56:49.494Z,10.45
2019-04-26T02:59:37.734Z,10.64
2019-04-26T03:02:13.207Z,10.74
2019-04-26T03:04:47.792Z,10.50
2019-04-26T03:07:26.827Z,10.40
2019-04-26T03:10:00.158Z,10.35
2019-04-26T03:12:35.820Z,10.35
2019-04-26T03:15:32.069Z,10.30
2019-04-26T03:18:24.674Z,10.33
2019-04-26T03:21:01.118Z,10.24
2019-04-26T03:23:57.003Z,10.23
2019-04-26T03:26:53.168Z,10.23
2019-04-26T03:29:53.065Z,10.30
2019-04-26T03:33:08.318Z,10.26
2019-04-26T03:36:18.554Z,10.29
2019-04-26T03:39:27.994Z,10.31
2019-04-26T03:42:40.147Z,10.35
2019-04-26T03:45:21.582Z,10.35
2019-04-26T03:48:21.495Z,10.37
2019-04-26T03:51:05.716Z,10.45
2019-04-26T03:53:51.027Z,10.65
2019-04-26T03:57:02.908Z,10.62
2019-04-26T04:00:14.178Z,10.71
2019-04-26T04:03:47.968Z,10.76
2019-04-26T04:06:26.759Z,10.92
2019-04-26T04:09:05.132Z,10.90
2019-04-26T04:11:49.702Z,11.00
2019-04-26T04:14:44.054Z,11.13
2019-04-26T04:17:28.422Z,11.11
2019-04-26T04:20:26.740Z,11.03
2019-04-26T04:23:28.304Z,10.98
2019-04-26T04:26:02.605Z,11.01
2019-04-26T04:29:07.796Z,11.04
2019-04-26T04:31:45.727Z,11.06
2019-04-26T04:34:37.519Z,11.02
2019-04-26T04:37:11.879Z,10.98
2019-04-26T04:40:19.583Z,11.06
2019-04-26T04:43:07.297Z,11.17
2019-04-26T04:46:21.291Z,11.29
2019-04-26T04:49:22.873Z,11.46
2019-04-26T04:52:13.806Z,11.48
2019-04-26T04:55:06.404Z,11.55
2019-04-26T04:57:38.742Z,11.74
2019-04-26T05:00:33.144Z,11.90
2019-04-26T05:03:45.266Z,12.08
2019-04-26T05:06:31.941Z,12.30
2019-04-26T05:09:16.862Z,12.51
2019-04-26T05:12:21.436Z,12.66
2019-04-26T05:15:54.998Z,12.89
2019-04-26T05:18:45.230Z,13.09
2019-04-26T05:21:46.926Z,13.27
2019-04-26T05:24:41.209Z,13.30
2019-04-26T05:27:57.183Z,13.44
2019-04-26T05:31:17.146Z,13.70
2019-04-26T05:34:42.733Z,13.98
2019-04-26T05:37:51.048Z,14.20
2019-04-26T05:41:09.063Z,14.52
2019-04-26T05:44:15.842Z,14.84
2019-04-26T05:48:05.355Z,15.13
2019-04-26T05:51:02.389Z,15.41
2019-04-26T05:54:15.670Z,15.68
2019-04-26T05:57:03.846Z,15.96
2019-04-26T05:59:53.524Z,16.22
2019-04-26T06:03:20.397Z,16.29
2019-04-26T06:06:20.243Z,16.50
2019-04-26T06:09:21.669Z,16.59
2019-04-26T06:12:05.392Z,16.80
2019-04-26T06:15:31.520Z,16.94
2019-04-26T06:18:42.029Z,17.12
2019-04-26T06:21:39.454Z,17.19
2019-04-26T06:24:40.165Z,17.13
2019-04-26T06:27:45.594Z,17.35
2019-04-26T06:30:22.601Z,17.51
2019-04-26T06:33:12.320Z,17.75
2019-04-26T06:35:48.083Z,17.77
2019-04-26T06:39:24.604Z,17.87
2019-04-26T06:42:17.857Z,17.87
2019-04-26T06:45:30.293Z,18.11
2019-04-26T06:48:17.430Z,18.31
2019-04-26T06:50:58.390Z,18.19
2019-04-26T06:54:06.054Z,18.30
2019-04-26T06:57:33.361Z,18.34
2019-04-26T07:00:20.238Z,18.33
2019-04-26T07:03:35.654Z,18.83
2019-04-26T07:06:08.856Z,18.68
2019-04-26T07:08:57.587Z,18.82
2019-04-26T07:12:22.406Z,19.06
2019-04-26T07:15:27.929Z,19.25
2019-04-26T07:18:32.022Z,19.36
2019-04-26T07:21:17.245Z,19.39
2019-04-26T07:24:55.047Z,19.55
2019-04-26T07:28:03.324Z,19.64
2019-04-26T07:30:38.470Z,19.63
2019-04-26T07:33:35.814Z,19.66
2019-04-26T07:36:33.626Z,20.06
2019-04-26T07:39:56.177Z,20.38
2019-04-26T07:43:01.837Z,20.10
2019-04-26T07:46:15.386Z,20.11
2019-04-26T07:49:20.161Z,20.37
2019-04-26T07:52:37.312Z,20.22
2019-04-26T07:55:30.895Z,20.43
2019-04-26T07:58:37.664Z,20.86
2019-04-26T08:01:45.373Z,21.28
2019-04-26T08:04:22.974Z,21.35
2019-04-26T08:07:02.366Z,21.58
2019-04-26T08:09:37.151Z,21.88
2019-04-26T08:12:12.245Z,22.03
2019-04-26T08:15:06.015Z,22.28
2019-04-26T08:17:57.377Z,22.19
2019-04-26T08:20:48.217Z,22.07
2019-04-26T08:23:39.188Z,21.92
2019-04-26T08:26:03.654Z,22.35
2019-04-26T08:28:38.048Z,22.77
2019-04-26T08:31:15.442Z,23.06
2019-04-26T08:33:54.096Z,23.24
2019-04-26T08:36:30.363Z,23.38
2019-04-26T08:39:03.127Z,23.32
2019-04-26T08:41:39.157Z,23.75
2019-04-26T08:44:21.400Z,23.94
2019-04-26T08:47:21.004Z,23.65
2019-04-26T08:49:55.943Z,23.37
2019-04-26T08:52:31.387Z,24.08
2019-04-26T08:55:06.117Z,24.43
2019-04-26T08:57:42.566Z,24.40
2019-04-26T09:00:48.245Z,24.78
2019-04-26T09:03:47.344Z,25.01
2019-04-26T09:06:42.552Z,25.21
2019-04-26T09:09:24.590Z,25.48
2019-04-26T09:12:03.804Z,25.81
2019-04-26T09:14:35.194Z,26.01
2019-04-26T09:17:08.189Z,25.53
2019-04-26T09:19:40.147Z,25.89
2019-04-26T09:22:17.244Z,25.97
2019-04-26T09:25:06.119Z,26.15
2019-04-26T09:27:42.809Z,26.15
2019-04-26T09:30:33.139Z,26.17
2019-04-26T09:33:12.743Z,26.61
2019-04-26T09:35:44.643Z,26.74
2019-04-26T09:38:16.119Z,26.75
2019-04-26T09:40:47.949Z,27.15
2019-04-26T09:43:44.447Z,27.11
2019-04-26T09:46:34.130Z,27.34
2019-04-26T09:49:31.083Z,27.85
2019-04-26T09:52:04.178Z,27.99
2019-04-26T09:54:36.264Z,28.29
2019-04-26T09:57:08.345Z,27.69
2019-04-26T09:59:41.188Z,28.03
2019-04-26T10:02:14.852Z,28.36
2019-04-26T10:04:46.308Z,28.58
2019-04-26T10:07:18.081Z,28.56
2019-04-26T10:09:51.743Z,28.49
2019-04-26T10:12:32.508Z,28.62
2019-04-26T10:15:29.922Z,28.85
2019-04-26T10:18:01.985Z,29.03
2019-04-26T10:20:33.843Z,29.12
2019-04-26T10:23:05.547Z,29.08
2019-04-26T10:25:37.652Z,28.89
2019-04-26T10:28:11.795Z,28.93
2019-04-26T10:30:43.941Z,29.16
2019-04-26T10:33:15.873Z,29.12
2019-04-26T10:35:47.597Z,28.78
2019-04-26T10:38:23.238Z,29.05
2019-04-26T10:40:52.556Z,29.39
2019-04-26T10:43:24.606Z,29.54
2019-04-26T10:45:56.926Z,29.69
2019-04-26T10:48:28.831Z,29.46
2019-04-26T10:51:03.180Z,29.60
2019-04-26T10:53:50.508Z,29.68
2019-04-26T10:56:46.455Z,29.69
2019-04-26T10:59:27.976Z,29.87
2019-04-26T11:02:00.186Z,29.70
2019-04-26T11:04:37.349Z,29.59
2019-04-26T11:07:08.366Z,29.97
2019-04-26T11:09:41.115Z,30.02
2019-04-26T11:12:13.940Z,30.14
2019-04-26T11:14:45.618Z,30.27
2019-04-26T11:17:17.912Z,30.52
2019-04-26T11:19:49.688Z,30.72
2019-04-26T11:22:28.995Z,30.94
2019-04-26T11:24:55.148Z,30.88
2019-04-26T11:27:26.932Z,30.56
2019-04-26T11:30:00.021Z,30.62
2019-04-26T11:32:33.143Z,30.41
2019-04-26T11:35:10.767Z,30.57
2019-04-26T11:37:42.643Z,30.88
2019-04-26T11:40:15.727Z,30.40
2019-04-26T11:42:47.455Z,30.82
2019-04-26T11:45:19.351Z,31.11
2019-04-26T11:47:56.280Z,31.42
2019-04-26T11:50:24.980Z,31.81
2019-04-26T11:52:57.123Z,31.78
2019-04-26T11:55:29.812Z,31.76
2019-04-26T11:58:02.029Z,32.42
2019-04-26T12:00:38.925Z,32.06
2019-04-26T12:03:10.853Z,32.54
2019-04-26T12:05:51.467Z,32.55
2019-04-26T12:08:27.450Z,32.69
2019-04-26T12:10:59.657Z,33.68
2019-04-26T12:13:31.455Z,33.59
2019-04-26T12:16:03.571Z,33.78
2019-04-26T12:18:35.263Z,34.36
2019-04-26T12:21:07.307Z,34.33
2019-04-26T12:23:39.615Z,33.10
2019-04-26T12:26:11.452Z,33.73
2019-04-26T12:28:43.487Z,33.70
2019-04-26T12:31:15.627Z,33.73
2019-04-26T12:33:47.644Z,33.77
2019-04-26T12:36:19.997Z,33.39
2019-04-26T12:38:51.842Z,33.73
2019-04-26T12:41:39.520Z,33.94
2019-04-26T12:43:59.590Z,33.68
2019-04-26T12:46:59.391Z,33.47
2019-04-26T12:49:29.926Z,34.63
2019-04-26T12:52:01.763Z,35.04
2019-04-26T12:54:34.399Z,34.95
2019-04-26T12:57:06.913Z,34.97
2019-04-26T12:59:44.326Z,35.33
2019-04-26T13:02:12.214Z,35.42
2019-04-26T13:04:44.751Z,35.47
2019-04-26T13:07:23.864Z,34.82
2019-04-26T13:10:10.468Z,35.72
2019-04-26T13:12:56.307Z,35.28
2019-04-26T13:16:09.906Z,36.05
2019-04-26T13:18:45.421Z,35.83
2019-04-26T13:21:15.068Z,36.51
2019-04-26T13:23:48.279Z,36.95
2019-04-26T13:26:20.118Z,35.78
2019-04-26T13:28:52.526Z,35.90
2019-04-26T13:31:31.409Z,35.27
2019-04-26T13:34:02.734Z,33.82
2019-04-26T13:36:31.638Z,32.19
2019-04-26T13:39:03.573Z,30.77
2019-04-26T13:41:38.631Z,30.16
2019-04-26T13:44:10.345Z,29.83
2019-04-26T13:46:58.874Z,29.00
2019-04-26T13:49:48.295Z,29.63
2019-04-26T13:52:20.538Z,29.79
2019-04-26T13:54:55.379Z,30.11
2019-04-26T13:57:25.486Z,29.85
2019-04-26T13:59:57.029Z,30.13
2019-04-26T14:02:29.423Z,30.44
2019-04-26T14:05:00.858Z,30.86
2019-04-26T14:07:32.654Z,31.27
2019-04-26T14:10:05.067Z,30.57
2019-04-26T14:12:37.337Z,31.01
2019-04-26T14:15:10.251Z,30.75
2019-04-26T14:17:42.274Z,30.95
2019-04-26T14:20:14.810Z,30.71
2019-04-26T14:23:23.570Z,30.91
2019-04-26T14:26:16.209Z,31.78
2019-04-26T14:28:48.224Z,31.19
2019-04-26T14:31:20.337Z,31.32
2019-04-26T14:33:52.009Z,31.31
2019-04-26T14:36:26.845Z,31.64
2019-04-26T14:39:05.611Z,31.50
2019-04-26T14:41:30.844Z,31.45
2019-04-26T14:44:14.640Z,31.58
2019-04-26T14:46:48.249Z,32.55
2019-04-26T14:49:09.518Z,32.37
2019-04-26T14:51:41.356Z,32.34
2019-04-26T14:54:12.939Z,32.66
2019-04-26T14:56:52.397Z,32.46
2019-04-26T14:59:44.398Z,31.86
2019-04-26T15:02:32.922Z,32.42
2019-04-26T15:05:26.946Z,31.87
2019-04-26T15:07:59.603Z,31.55
2019-04-26T15:10:45.889Z,31.05
2019-04-26T15:13:20.038Z,30.92
2019-04-26T15:15:46.301Z,30.01
2019-04-26T15:18:17.747Z,29.49
2019-04-26T15:20:49.339Z,28.89
2019-04-26T15:23:23.866Z,28.29
2019-04-26T15:25:54.630Z,28.07
2019-04-26T15:28:26.086Z,27.75
2019-04-26T15:30:58.039Z,27.38
2019-04-26T15:33:30.260Z,27.03
2019-04-26T15:36:02.328Z,26.94
2019-04-26T15:38:41.364Z,26.88
2019-04-26T15:41:18.435Z,26.52
2019-04-26T15:44:02.629Z,26.31
2019-04-26T15:46:53.813Z,26.08
2019-04-26T15:49:44.143Z,26.08
2019-04-26T15:52:16.183Z,26.17
2019-04-26T15:54:48.297Z,25.93
2019-04-26T15:57:20.330Z,25.93
2019-04-26T15:59:54.345Z,25.79
2019-04-26T16:02:26.593Z,25.83
2019-04-26T16:04:58.515Z,25.78
2019-04-26T16:07:30.555Z,25.68
2019-04-26T16:10:02.186Z,25.58
2019-04-26T16:12:34.974Z,25.47
2019-04-26T16:15:11.419Z,25.35
2019-04-26T16:17:41.305Z,25.11
2019-04-26T16:20:13.624Z,25.17
2019-04-26T16:22:48.922Z,25.03
2019-04-26T16:25:20.066Z,25.06
2019-04-26T16:28:10.520Z,25.05
2019-04-26T16:30:53.192Z,24.92
2019-04-26T16:33:33.101Z,24.89
2019-04-26T16:36:05.398Z,24.91
2019-04-26T16:38:36.273Z,24.85
2019-04-26T16:41:09.063Z,24.79
2019-04-26T16:43:52.238Z,24.72
2019-04-26T16:46:20.056Z,24.61
2019-04-26T16:48:47.938Z,24.59
2019-04-26T16:51:23.209Z,24.51
2019-04-26T16:54:06.668Z,24.38
2019-04-26T16:56:28.735Z,24.29
2019-04-26T16:59:03.310Z,24.18
2019-04-26T17:01:38.125Z,24.07
2019-04-26T17:04:11.298Z,23.94
2019-04-26T17:06:44.926Z,23.84
2019-04-26T17:09:15.392Z,23.75
2019-04-26T17:11:46.868Z,23.69
2019-04-26T17:14:18.721Z,23.68
2019-04-26T17:16:53.547Z,23.48
2019-04-26T17:19:25.497Z,23.52
2019-04-26T17:22:10.197Z,23.48
2019-04-26T17:25:24.409Z,23.33
2019-04-26T17:27:54.143Z,23.18
2019-04-26T17:30:26.614Z,23.09
2019-04-26T17:32:58.461Z,23.03
2019-04-26T17:35:30.117Z,22.93
2019-04-26T17:38:04.985Z,22.61
2019-04-26T17:40:36.686Z,22.47
2019-04-26T17:43:09.789Z,22.33
2019-04-26T17:45:44.241Z,22.20
2019-04-26T17:48:16.307Z,22.07
2019-04-26T17:50:48.295Z,21.92
2019-04-26T17:53:28.685Z,21.94
2019-04-26T17:55:54.773Z,21.73
2019-04-26T17:58:30.961Z,21.70
2019-04-26T18:01:02.859Z,21.63
2019-04-26T18:03:35.037Z,21.59
2019-04-26T18:06:09.595Z,21.41
2019-04-26T18:08:46.064Z,21.30
2019-04-26T18:11:19.535Z,21.34
2019-04-26T18:13:51.149Z,21.21
2019-04-26T18:16:22.436Z,21.23
2019-04-26T18:19:07.974Z,21.05
2019-04-26T18:21:56.570Z,21.12
2019-04-26T18:24:27.538Z,21.12
2019-04-26T18:27:00.581Z,21.19
2019-04-26T18:29:33.701Z,21.05
2019-04-26T18:32:05.634Z,20.84
2019-04-26T18:34:40.504Z,20.82
2019-04-26T18:37:10.886Z,21.00
2019-04-26T18:39:44.349Z,20.95
2019-04-26T18:42:16.142Z,20.97
2019-04-26T18:44:48.919Z,20.98
2019-04-26T18:47:27.616Z,20.93
2019-04-26T18:49:59.373Z,20.96
2019-04-26T18:52:33.711Z,20.85
2019-04-26T18:55:16.329Z,20.88
2019-04-26T18:57:54.714Z,20.89
2019-04-26T19:00:29.061Z,20.66
2019-04-26T19:03:00.878Z,20.74
2019-04-26T19:05:33.856Z,20.70
2019-04-26T19:08:07.668Z,20.70
2019-04-26T19:10:40.613Z,20.70
2019-04-26T19:13:26.567Z,20.62
2019-04-26T19:16:23.263Z,20.60
2019-04-26T19:19:26.354Z,20.53
2019-04-26T19:22:03.262Z,20.32
2019-04-26T19:24:34.509Z,20.35
2019-04-26T19:27:06.811Z,20.34
2019-04-26T19:29:38.404Z,20.33
2019-04-26T19:32:11.763Z,20.28
2019-04-26T19:34:43.709Z,20.30
2019-04-26T19:37:15.552Z,20.23
2019-04-26T19:39:47.443Z,20.17
2019-04-26T19:42:18.933Z,20.17
2019-04-26T19:45:09.434Z,20.16
2019-04-26T19:47:44.165Z,20.09
2019-04-26T19:50:48.736Z,20.02
2019-04-26T19:53:47.255Z,19.98
2019-04-26T19:56:27.791Z,19.91
2019-04-26T19:58:58.947Z,19.85
2019-04-26T20:01:30.969Z,19.68
2019-04-26T20:04:02.884Z,19.76
2019-04-26T20:06:34.884Z,19.70
2019-04-26T20:09:07.648Z,19.65
2019-04-26T20:11:42.133Z,19.66
2019-04-26T20:14:13.008Z,19.57
2019-04-26T20:16:44.804Z,19.41
2019-04-26T20:19:18.011Z,19.32
2019-04-26T20:21:50.595Z,19.03
2019-04-26T20:24:23.116Z,19.19
2019-04-26T20:26:54.967Z,19.12
2019-04-26T20:29:26.493Z,19.10
2019-04-26T20:32:07.438Z,18.96
2019-04-26T20:34:39.355Z,19.03
2019-04-26T20:37:11.174Z,18.97
2019-04-26T20:39:42.803Z,18.69
2019-04-26T20:42:14.685Z,18.72
2019-04-26T20:44:50.977Z,18.70
2019-04-26T20:47:21.580Z,18.71
2019-04-26T20:50:00.725Z,18.68
2019-04-26T20:52:26.954Z,18.44
2019-04-26T20:54:58.574Z,18.59
2019-04-26T20:57:31.349Z,18.48
2019-04-26T21:00:05.492Z,18.42
2019-04-26T21:02:38.620Z,18.39
2019-04-26T21:05:14.164Z,18.33
2019-04-26T21:07:49.205Z,18.24
2019-04-26T21:10:21.983Z,18.25
2019-04-26T21:12:54.844Z,18.19
2019-04-26T21:15:25.522Z,18.07
2019-04-26T21:18:01.354Z,18.11
2019-04-26T21:20:32.753Z,17.92
2019-04-26T21:23:03.917Z,18.04
2019-04-26T21:25:53.454Z,18.05
2019-04-26T21:28:38.125Z,18.04
2019-04-26T21:31:19.104Z,17.93
2019-04-26T21:34:07.989Z,17.93
2019-04-26T21:37:03.421Z,17.98
2019-04-26T21:39:54.367Z,17.95
2019-04-26T21:42:26.223Z,17.86
2019-04-26T21:44:58.343Z,17.75
2019-04-26T21:47:31.962Z,17.73
2019-04-26T21:50:04.269Z,17.75
2019-04-26T21:52:35.918Z,17.67
2019-04-26T21:55:08.865Z,17.63
2019-04-26T21:57:40.527Z,17.51
2019-04-26T22:00:43.770Z,17.60
2019-04-26T22:03:17.459Z,17.54
2019-04-26T22:05:49.958Z,17.54
2019-04-26T22:08:25.861Z,17.54
2019-04-26T22:10:57.633Z,17.49
2019-04-26T22:13:47.126Z,17.41
2019-04-26T22:16:34.456Z,17.41
2019-04-26T22:19:23.982Z,17.25
2019-04-26T22:22:25.075Z,17.36
2019-04-26T22:24:57.658Z,17.26
2019-04-26T22:27:29.265Z,17.21
2019-04-26T22:30:00.591Z,17.20
2019-04-26T22:32:33.368Z,17.12
2019-04-26T22:35:05.019Z,17.05
2019-04-26T22:37:36.901Z,17.13
2019-04-26T22:40:10.500Z,17.11
2019-04-26T22:42:44.008Z,17.08
2019-04-26T22:45:44.195Z,17.09
2019-04-26T22:48:25.697Z,17.02
2019-04-26T22:50:59.483Z,17.08
2019-04-26T22:53:32.849Z,17.01
2019-04-26T22:56:05.049Z,16.95
2019-04-26T22:58:36.889Z,17.00
2019-04-26T23:01:08.604Z,16.91
2019-04-26T23:03:41.086Z,16.85
2019-04-26T23:06:15.329Z,16.85
2019-04-26T23:08:47.415Z,16.83
2019-04-26T23:11:19.248Z,16.76
2019-04-26T23:14:03.372Z,16.77
2019-04-26T23:17:03.745Z,16.79
2019-04-26T23:19:54.190Z,16.73
2019-04-26T23:22:26.339Z,16.68
2019-04-26T23:24:58.082Z,16.69
2019-04-26T23:27:29.913Z,16.62
2019-04-26T23:30:01.352Z,16.66
2019-04-26T23:32:33.889Z,16.69
2019-04-26T23:35:06.219Z,16.65
2019-04-26T23:37:38.187Z,16.54
2019-04-26T23:40:10.223Z,16.36
2019-04-26T23:42:43.547Z,16.42
2019-04-26T23:45:15.148Z,16.35
2019-04-26T23:47:46.653Z,16.39
2019-04-26T23:50:18.688Z,16.32
2019-04-26T23:52:50.471Z,16.26
2019-04-26T23:55:23.655Z,16.18
2019-04-26T23:57:55.227Z,16.10
